• Join FlightAware (Why Join?)
  • Login
  • US Flag 
05:54PM EDT


 

Airport Tracker/Info


-or-


 

Live Flight TrackerFlight Track Log ✈ UPS37 ✈ 15-Dec-2013 ✈ YSSY / SYD - ZGSZ / SZX

Flight Track Log - Related Links

Times and Time Zones

All times are in EST time to prevent confusion due to time zone crossing. See the UPS37 flight status page for this flight to view local times or setup timezone preferences in your user account.

Time Position Orientation Groundspeed Altitude Reporting Facility
EST Latitude Longitude Course Direction KTS MPH feet Rate Location/Type
03:57AM -33.9352 151.1731 87° East 100 115  Level FlightAware ADS-B (YRAY)
03:57AM -33.9566 151.1784 168° South 162 186 600 1,560 Climbing FlightAware ADS-B
03:58AM -33.9728 151.1821 169° South 176 203 1,400 2,040 Climbing FlightAware ADS-B
03:58AM -33.9790 151.1821 180° South 178 205 1,600 3,120 Climbing FlightAware ADS-B (YRAY)
03:58AM -33.9903 151.1807 186° South 187 215 2,300 3,060 Climbing FlightAware ADS-B (YPLB)
03:58AM -34.0031 151.1785 188° South 188 216 3,100 1,980 Climbing FlightAware ADS-B (YWST)
03:59AM -34.0218 151.1767 185° South 210 242 3,600 1,680 Climbing FlightAware ADS-B (YRAY)
03:59AM -34.0431 151.1807 171° South 238 274 4,200 2,160 Climbing FlightAware ADS-B (YRAY)
03:59AM -34.0488 151.1826 164° South 247 284 4,500 3,240 Climbing FlightAware ADS-B (YSBK / BWU)
03:59AM -34.0683 151.1893 164° South 251 289 5,400 3,540 Climbing FlightAware ADS-B (YRPA)
04:00AM -34.0862 151.1953 164° South 260 299 6,400 3,600 Climbing FlightAware ADS-B (YSSY / SYD)
04:00AM -34.0952 151.1984 164° South 264 304 6,800 3,480 Climbing FlightAware ADS-B (YSBK / BWU)
04:00AM -34.1143 151.2043 166° South 266 306 7,800 3,360 Climbing FlightAware ADS-B (YRPA)
04:00AM -34.1311 151.2068 173° South 268 308 8,500 3,120 Climbing FlightAware ADS-B (YWST)
04:00AM -34.1377 151.2056 189° South 266 306 8,800 3,000 Climbing FlightAware ADS-B
04:01AM -34.1494 151.1993 204° Southwest 267 307 9,300 3,000 Climbing FlightAware ADS-B (YRPA)
04:01AM -34.1544 151.1947 217° Southwest 269 310 9,600 3,000 Climbing FlightAware ADS-B (YWST)
04:01AM -34.1650 151.1763 235° Southwest 272 313 10,300 3,000 Climbing FlightAware ADS-B (YRPA)
04:01AM -34.1665 151.1708 251° West 288 331 10,500 1,200 Climbing FlightAware ADS-B (YSSY / SYD)
04:01AM -34.1573 151.1912 61° Northeast 300 345 10,500 840 Level FlightAware ADS-B (YPLB)
04:01AM -34.1659 151.1369 259° West 319 367 10,800 1,140 Climbing FlightAware ADS-B (YWST)
04:01AM -34.1580 151.1177 296° West 340 391 11,000 1,560 Climbing FlightAware ADS-B (YRAY)
04:02AM -34.1369 151.0923 315° West 365 420 11,500 1,740 Climbing FlightAware ADS-B (YPLB)
04:02AM -34.1290 151.0856 325° Northwest 370 426 11,700 2,520 Climbing FlightAware ADS-B (YSSY / SYD)
04:02AM -34.0802 151.0503 329° Northwest 387 445 13,300 3,300 Climbing FlightAware ADS-B (YRAY)
04:03AM -34.0468 151.0269 330° Northwest 392 451 14,400 3,000 Climbing FlightAware ADS-B (YPLB)
04:03AM -34.0083 150.9971 327° Northwest 400 460 15,900 2,520 Climbing FlightAware ADS-B (YSBK / BWU)
04:04AM -33.9652 150.9645 328° Northwest 399 459 16,800 2,520 Climbing FlightAware ADS-B (YSSY / SYD)
04:04AM -33.9588 150.9606 333° Northwest 412 474 17,000 2,760 Climbing FlightAware ADS-B (YRPA)
04:04AM -33.9178 150.9390 336° Northwest 414 476 18,100 2,520 Climbing FlightAware ADS-B (YRAY)
04:05AM -33.8531 150.9077 338° Northwest 430 495 19,500 2,520 Climbing FlightAware ADS-B (YSSY / SYD)
04:05AM -33.7742 150.8674 337° Northwest 435 501 21,400 2,520 Climbing FlightAware ADS-B (YSSY / SYD)
04:06AM -33.7297 150.8444 337° Northwest 441 507 22,200 2,280 Climbing FlightAware ADS-B (YPLB)
04:06AM -33.7016 150.8297 337° Northwest 448 516 22,900 2,100 Climbing FlightAware ADS-B (YSSY / SYD)
04:06AM -33.6535 150.8049 337° Northwest 450 518 23,600 1,800 Climbing FlightAware ADS-B (YPLB)
04:07AM -33.6018 150.7790 337° Northwest 457 526 24,500 1,860 Climbing FlightAware ADS-B (YSBK / BWU)
04:07AM -33.5355 150.7531 342° North 466 536 25,600 2,040 Climbing FlightAware ADS-B
04:08AM -33.4976 150.7364 340° North 471 542 26,100 1,620 Climbing FlightAware ADS-B (YPLB)
04:08AM -33.4270 150.7061 340° North 480 552 27,100 1,800 Climbing FlightAware ADS-B (YWST)
04:09AM -33.3534 150.6750 340° North 479 551 28,300 1,800 Climbing Aus ATC (RADAR)
04:09AM -33.3390 150.6693 340° North 486 559 28,300 1,560 Level FlightAware ADS-B (YWST)
04:10AM -33.2722 150.6415 341° North 487 560 29,300 2,160 Climbing FlightAware ADS-B (YWST)
04:10AM -33.2211 150.6196 340° North 478 550 30,300 2,340 Climbing FlightAware ADS-B (YSBK / BWU)
04:10AM -33.1606 150.5770 329° Northwest 469 540 31,500 2,340 Climbing FlightAware ADS-B (YSBK / BWU)
04:11AM -33.1241 150.5493 328° Northwest 464 534 32,200 2,700 Climbing FlightAware ADS-B (YPLB)
04:11AM -33.1075 150.5368 328° Northwest 459 528 33,100 2,100 Climbing FlightAware ADS-B (YSBK / BWU)
04:12AM -33.0514 150.4945 328° Northwest 454 522 34,200 1,560 Climbing FlightAware ADS-B (YSBK / BWU)
04:12AM -32.9720 150.4350 328° Northwest 451 519 35,000 1,440 Climbing FlightAware ADS-B (YSBK / BWU)
04:13AM -32.9023 150.3828 328° Northwest 447 514 36,000 1,200 Climbing Aus ATC (RADAR)
04:13AM -32.8800 150.3667 328° Northwest 452 520 36,000 840 Level FlightAware ADS-B (YPLB)
04:14AM -32.8082 150.3142 328° Northwest 451 519 36,700 1,080 Climbing FlightAware ADS-B (YPLB)
04:14AM -32.7380 150.2628 328° Northwest 447 514 37,500 1,080 Climbing FlightAware ADS-B (YPLB)
04:15AM -32.6962 150.2423 338° Northwest 455 524 37,800 480 Climbing FlightAware ADS-B (YPLB)
04:15AM -32.6469 150.2240 338° Northwest 451 519 38,000 540 Climbing FlightAware ADS-B (YPLB)
04:15AM -32.6252 150.2156 338° Northwest 452 520 38,200  Climbing Aus ATC (RADAR)
04:16AM -32.5618 150.1920 342° North 450 518 38,000 -240 Descending FlightAware ADS-B (YPLB)
04:16AM -32.4990 150.1683 342° North 445 512 38,000 180 Level Aus ATC (RADAR)
04:17AM -32.4654 150.1561 343° North 455 524 38,200  Climbing Aus ATC (RADAR)
04:17AM -32.4461 150.1490 343° North 455 524 38,000 -120 Descending FlightAware ADS-B (YRPA)
04:18AM -32.3560 150.1154 343° North 456 525 38,100  Climbing Aus ATC (RADAR)
04:18AM -32.3256 150.1046 343° North 456 525 38,000 -240 Descending FlightAware ADS-B (YRPA)
04:18AM -32.2947 150.0930 343° North 456 525 38,000  Level Aus ATC (RADAR)
04:18AM -32.2641 150.0813 343° North 455 524 38,000  Level Aus ATC (RADAR)
04:19AM -32.2020 150.0589 343° North 452 520 38,000  Level FlightAware ADS-B (YRPA)
04:20AM -32.0917 150.0177 343° North 451 519 38,000 60 Level Aus ATC (RADAR)
04:20AM -32.0171 149.9906 343° North 460 529 38,100  Climbing Aus ATC (RADAR)
04:21AM -31.9390 149.9622 343° North 452 520 38,000 -120 Descending FlightAware ADS-B (YRPA)
04:21AM -31.9086 149.9508 343° North 453 521 38,000  Level Aus ATC (RADAR)
04:22AM -31.8679 149.9360 343° North 454 522 38,000  Level Aus ATC (RADAR)
04:22AM -31.7963 149.9102 343° North 454 522 38,000  Level Aus ATC (RADAR)
04:23AM -31.6948 149.8728 343° North 453 521 38,000  Level Aus ATC (RADAR)
04:23AM -31.6407 149.8533 343° North 460 529 38,000  Level Aus ATC (RADAR)
04:24AM -31.5625 149.8251 343° North 454 522 38,000  Level Aus ATC (RADAR)
04:25AM -31.4813 149.7954 343° North 453 521 38,000  Level Aus ATC (RADAR)
04:25AM -31.4097 149.7699 343° North 455 524 38,000 60 Level Aus ATC (RADAR)
04:26AM -31.3034 149.7313 343° North 464 534 38,100 60 Climbing Aus ATC (RADAR)
04:26AM -31.2728 149.7202 343° North 463 533 38,100  Level Aus ATC (RADAR)
04:27AM -31.1945 149.6922 343° North 458 527 38,100  Level Aus ATC (RADAR)
04:28AM -31.0607 149.6441 343° North 459 528 38,100 -120 Level Aus ATC (RADAR)
04:29AM -31.0049 149.6242 343° North 468 539 38,000 -120 Descending Aus ATC (RADAR)
04:29AM -30.9430 149.6019 343° North 467 537 38,000  Level Aus ATC (RADAR)
04:30AM -30.8322 149.5625 343° North 465 535 38,000  Level Aus ATC (RADAR)
04:31AM -30.7551 149.5348 343° North 474 545 38,000  Level Aus ATC (RADAR)
04:31AM -30.6545 149.4990 343° North 468 539 38,000 60 Level Aus ATC (RADAR)
04:32AM -30.5979 149.4790 343° North 474 545 38,100 60 Climbing Aus ATC (RADAR)
04:32AM -30.5249 149.4531 343° North 472 543 38,100  Level Aus ATC (RADAR)
04:33AM -30.4208 149.4162 343° North 470 541 38,100  Level Aus ATC (RADAR)
04:34AM -30.3624 149.3956 343° North 464 534 38,100  Level Aus ATC (RADAR)
04:34AM -30.2901 149.3701 343° North 462 532 38,100 -120 Level Aus ATC (RADAR)
04:35AM -30.1933 149.3361 343° North 465 535 38,000 -120 Descending Aus ATC (RADAR)
04:36AM -30.1158 149.3087 343° North 456 525 38,000 -120 Level Aus ATC (RADAR)
04:37AM -30.0202 149.2753 343° North 459 528 37,900  Descending Aus ATC (RADAR)
04:37AM -29.9694 149.2574 343° North 460 529 38,000 60 Climbing Aus ATC (RADAR)
04:38AM -29.8925 149.2300 343° North 455 524 38,000 60 Level Aus ATC (RADAR)
04:39AM -29.7795 149.1903 343° North 459 528 38,100 60 Climbing Aus ATC (RADAR)
04:39AM -29.7485 149.1797 343° North 460 529 38,100 -120 Level Aus ATC (RADAR)
04:39AM -29.6712 149.1541 344° North 463 533 38,000 -120 Descending Aus ATC (RADAR)
04:40AM -29.5710 149.1188 343° North 455 524 38,000 -120 Level Aus ATC (RADAR)
04:41AM -29.5009 149.0942 343° North 454 522 37,900  Descending Aus ATC (RADAR)
04:42AM -29.4033 149.0606 343° North 450 518 38,000 60 Climbing Aus ATC (RADAR)
04:42AM -29.3488 149.0424 344° North 458 527 38,000  Level Aus ATC (RADAR)
04:43AM -29.2765 149.0182 344° North 462 532 38,000  Level Aus ATC (RADAR)
04:44AM -29.1699 148.9792 342° North 457 526 38,000  Level Aus ATC (RADAR)
04:44AM -29.1190 148.9616 343° North 457 526 38,000  Level Aus ATC (RADAR)
04:45AM -29.0479 148.9373 343° North 455 524 38,000  Level Aus ATC (RADAR)
04:45AM -28.9328 148.8993 344° North 453 521 38,000 -120 Level Aus ATC (RADAR)
04:46AM -28.8573 148.8726 343° North 447 514 37,900  Descending Aus ATC (RADAR)
04:47AM -28.7542 148.8383 344° North 449 517 38,000 60 Climbing Aus ATC (RADAR)
04:48AM -28.6782 148.8111 343° North 445 512 38,000  Level Aus ATC (RADAR)
04:49AM -28.5119 148.7559 344° North 456 525 38,000  Level Aus ATC (RADAR)
04:49AM -28.4765 148.7423 341° North 452 520 38,000  Level Aus ATC (RADAR)
04:50AM -28.4054 148.7180 343° North 454 522 38,000 60 Level Aus ATC (RADAR)
04:51AM -28.3047 148.6840 343° North 451 519 38,100  Climbing Aus ATC (RADAR)
04:51AM -28.2282 148.6618 346° North 453 521 38,000 -120 Descending Aus ATC (RADAR)
04:52AM -28.1362 148.6266 341° North 443 510 38,000 -120 Level Aus ATC (RADAR)
04:53AM -28.0801 148.6124 347° North 447 514 37,900  Descending Aus ATC (RADAR)
04:53AM -27.9942 148.5665 335° Northwest 436 502 38,000 60 Climbing Aus ATC (RADAR)
04:54AM -27.9428 148.5350 332° Northwest 424 488 38,000  Level Aus ATC (RADAR)
04:54AM -27.8990 148.5089 332° Northwest 423 487 38,000  Level Aus ATC (RADAR)
04:55AM -27.8289 148.4749 337° Northwest 436 502 38,000  Level Aus ATC (RADAR)
04:56AM -27.7574 148.4244 328° Northwest 431 496 38,000  Level Aus ATC (RADAR)
04:56AM -27.6923 148.3872 333° Northwest 440 506 38,000  Level Aus ATC (RADAR)
04:57AM -27.6108 148.3402 333° Northwest 439 505 38,000  Level Aus ATC (RADAR)
04:57AM -27.5579 148.3089 332° Northwest 434 499 38,000  Level Aus ATC (RADAR)
04:58AM -27.4975 148.2730 332° Northwest 428 493 38,000  Level Aus ATC (RADAR)
04:59AM -27.4092 148.2220 333° Northwest 426 490 38,000  Level Aus ATC (RADAR)
04:59AM -27.3672 148.1983 333° Northwest 416 479 38,000  Level Aus ATC (RADAR)
05:00AM -27.3177 148.1637 328° Northwest 402 463 38,000  Level Aus ATC (RADAR)
05:01AM -27.2230 148.1072 332° Northwest 419 482 38,000  Level Aus ATC (RADAR)
05:01AM -27.1619 148.0715 333° Northwest 422 486 38,000  Level Aus ATC (RADAR)
05:02AM -27.0832 148.0254 332° Northwest 424 488 38,000  Level Aus ATC (RADAR)
05:02AM -27.0381 147.9983 332° Northwest 433 498 38,000  Level Aus ATC (RADAR)
05:03AM -26.9677 147.9571 332° Northwest 428 493 38,000  Level Aus ATC (RADAR)
05:04AM -26.8879 147.9102 332° Northwest 430 495 38,000  Level Aus ATC (RADAR)
05:04AM -26.8438 147.8848 333° Northwest 428 493 38,000  Level Aus ATC (RADAR)
05:05AM -26.7728 147.8433 332° Northwest 430 495 38,000  Level Aus ATC (RADAR)
05:06AM -26.6864 147.7925 332° Northwest 421 484 38,000  Level Aus ATC (RADAR)
05:06AM -26.6266 147.7574 332° Northwest 417 480 38,000  Level Aus ATC (RADAR)
05:07AM -26.5514 147.7144 333° Northwest 408 470 38,000  Level Aus ATC (RADAR)
05:08AM -26.4996 147.6844 333° Northwest 415 478 38,000  Level Aus ATC (RADAR)
05:08AM -26.4393 147.6495 333° Northwest 418 481 38,000  Level Aus ATC (RADAR)
05:09AM -26.3523 147.5989 332° Northwest 425 489 38,000  Level Aus ATC (RADAR)
05:09AM -26.3082 147.5732 332° Northwest 427 491 38,000  Level Aus ATC (RADAR)
05:10AM -26.2464 147.5382 333° Northwest 424 488 38,000  Level Aus ATC (RADAR)
05:11AM -26.1672 147.4926 333° Northwest 426 490 38,000  Level Aus ATC (RADAR)
05:11AM -26.1062 147.4572 332° Northwest 424 488 38,000  Level Aus ATC (RADAR)
05:12AM -26.0295 147.4133 333° Northwest 415 478 38,000  Level Aus ATC (RADAR)
05:13AM -25.9853 147.3874 332° Northwest 421 484 38,000  Level Aus ATC (RADAR)
05:13AM -25.9234 147.3520 333° Northwest 426 490 38,000  Level Aus ATC (RADAR)
05:14AM -25.8192 147.2925 333° Northwest 423 487 38,000 -120 Level Aus ATC (RADAR)
05:15AM -25.7672 147.2629 333° Northwest 422 486 37,900 -120 Descending Aus ATC (RADAR)
05:15AM -25.7168 147.2338 333° Northwest 417 480 37,900  Level Aus ATC (RADAR)
05:16AM -25.6240 147.1808 333° Northwest 413 475 37,900  Level Aus ATC (RADAR)
05:17AM -25.5646 147.1471 333° Northwest 412 474 37,900  Level Aus ATC (RADAR)
05:17AM -25.4791 147.0983 333° Northwest 414 476 37,900 60 Level Aus ATC (RADAR)
05:18AM -25.4173 147.0630 333° Northwest 419 482 38,000  Climbing Aus ATC (RADAR)
05:19AM -25.3283 147.0126 333° Northwest 425 489 37,900 -120 Descending Aus ATC (RADAR)
05:19AM -25.2660 146.9778 333° Northwest 427 491 37,900  Level Aus ATC (RADAR)
05:20AM -25.2042 146.9427 333° Northwest 428 493 37,900  Level Aus ATC (RADAR)
05:21AM -25.1165 146.8931 333° Northwest 427 491 37,900  Level Aus ATC (RADAR)
05:21AM -25.0723 146.8682 333° Northwest 427 491 37,900  Level Aus ATC (RADAR)
05:22AM -25.0102 146.8336 333° Northwest 428 493 37,900  Level Aus ATC (RADAR)
05:23AM -24.9357 146.7908 332° Northwest 418 481 37,900  Level Aus ATC (RADAR)
05:23AM -24.8744 146.7567 333° Northwest 422 486 37,900  Level Aus ATC (RADAR)
05:24AM -24.7785 146.7027 333° Northwest 423 487 37,900 60 Level Aus ATC (RADAR)
05:25AM -24.7262 146.6724 332° Northwest 426 490 38,000 60 Climbing Aus ATC (RADAR)
05:25AM -24.6645 146.6381 333° Northwest 427 491 38,000  Level Aus ATC (RADAR)
05:26AM -24.5938 146.5986 333° Northwest 427 491 38,000 -120 Level Aus ATC (RADAR)
05:26AM -24.5308 146.5637 333° Northwest 433 498 37,900 -120 Descending Aus ATC (RADAR)
05:27AM -24.4689 146.5289 333° Northwest 431 496 37,900  Level Aus ATC (RADAR)
05:28AM -24.3988 146.4898 333° Northwest 426 490 37,900  Level Aus ATC (RADAR)
05:28AM -24.3370 146.4553 333° Northwest 426 490 37,900  Level Aus ATC (RADAR)
05:29AM -24.2241 146.3929 333° Northwest 420 483 37,900 60 Level Aus ATC (RADAR)
05:30AM -24.1892 146.3733 333° Northwest 421 484 38,000  Climbing Aus ATC (RADAR)
05:30AM -24.1283 146.3396 333° Northwest 421 484 37,900 -120 Descending Aus ATC (RADAR)
05:31AM -24.0404 146.2910 333° Northwest 425 489 37,900  Level Aus ATC (RADAR)
05:32AM -23.9703 146.2523 333° Northwest 424 488 37,900  Level Aus ATC (RADAR)
05:33AM -23.8909 146.2088 333° Northwest 426 490 37,900  Level Aus ATC (RADAR)
05:33AM -23.8292 146.1748 333° Northwest 426 490 37,900  Level Aus ATC (RADAR)
05:34AM -23.7413 146.1273 334° Northwest 425 489 37,900  Level Aus ATC (RADAR)
05:35AM -23.6786 146.0926 333° Northwest 428 493 37,900  Level Aus ATC (RADAR)
05:35AM -23.6159 146.0582 333° Northwest 430 495 37,900  Level Aus ATC (RADAR)
05:36AM -23.5262 146.0090 333° Northwest 432 497 37,900  Level Aus ATC (RADAR)
05:36AM -23.4796 145.9829 333° Northwest 439 505 37,900  Level Aus ATC (RADAR)
05:37AM -23.4165 145.9483 333° Northwest 436 502 37,900  Level Aus ATC (RADAR)
05:38AM -23.3342 145.9030 333° Northwest 441 507 37,900  Level Aus ATC (RADAR)
05:38AM -23.2713 145.8688 333° Northwest 437 503 37,900  Level Aus ATC (RADAR)
05:39AM -23.1896 145.8242 333° Northwest 438 504 37,900  Level Aus ATC (RADAR)
05:40AM -23.1276 145.7908 334° Northwest 430 495 37,900  Level Aus ATC (RADAR)
05:40AM -23.0547 145.7507 333° Northwest 437 503 37,900  Level Aus ATC (RADAR)
05:41AM -22.9741 145.7066 333° Northwest 434 499 37,900  Level Aus ATC (RADAR)
05:41AM -22.9291 145.6822 333° Northwest 435 501 37,900 60 Level Aus ATC (RADAR)
05:42AM -22.8663 145.6479 333° Northwest 434 499 38,000  Climbing Aus ATC (RADAR)
05:43AM -22.7848 145.6040 334° Northwest 434 499 37,900 -120 Descending Aus ATC (RADAR)
05:43AM -22.7217 145.5695 333° Northwest 435 501 37,900  Level Aus ATC (RADAR)
05:44AM -22.6407 145.5259 334° Northwest 432 497 37,900  Level Aus ATC (RADAR)
05:45AM -22.5772 145.4911 333° Northwest 437 503 37,900  Level Aus ATC (RADAR)
05:45AM -22.5136 145.4570 334° Northwest 437 503 37,900  Level Aus ATC (RADAR)
05:46AM -22.4140 145.4030 333° Northwest 437 503 37,900  Level Aus ATC (RADAR)
05:46AM -22.3862 145.3878 333° Northwest 443 510 37,900 240 Level Aus ATC (RADAR)
05:47AM -22.3223 145.3534 334° Northwest 440 506 38,100  Climbing Aus ATC (RADAR)
05:48AM -22.2399 145.3098 334° Northwest 439 505 37,900 -180 Descending Aus ATC (RADAR)
05:48AM -22.1756 145.2743 333° Northwest 444 511 37,900  Level Aus ATC (RADAR)
05:49AM -22.0937 145.2309 334° Northwest 441 507 37,900  Level Aus ATC (RADAR)
05:50AM -22.0302 145.1972 334° Northwest 438 504 37,900  Level Aus ATC (RADAR)
05:50AM -21.9667 145.1629 333° Northwest 437 503 37,900  Level Aus ATC (RADAR)
05:51AM -21.8858 145.1196 334° Northwest 434 499 37,900 60 Level Aus ATC (RADAR)
05:51AM -21.8403 145.0957 334° Northwest 436 502 38,000 60 Climbing Aus ATC (RADAR)
05:52AM -21.7770 145.0615 333° Northwest 439 505 38,000  Level Aus ATC (RADAR)
05:53AM -21.6862 145.0127 333° Northwest 437 503 38,000  Level Aus ATC (RADAR)
05:53AM -21.6314 144.9835 334° Northwest 439 505 38,000 60 Level Aus ATC (RADAR)
05:54AM -21.5392 144.9346 334° Northwest 443 510 38,100  Climbing Aus ATC (RADAR)
05:55AM -21.4738 144.8999 334° Northwest 447 514 38,000 -120 Descending Aus ATC (RADAR)
05:55AM -21.4088 144.8654 334° Northwest 447 514 38,000  Level Aus ATC (RADAR)
05:56AM -21.3443 144.8314 334° Northwest 445 512 38,000  Level Aus ATC (RADAR)
05:56AM -21.2802 144.7976 334° Northwest 442 509 38,000  Level Aus ATC (RADAR)
05:57AM -21.2167 144.7639 334° Northwest 438 504 38,000  Level Aus ATC (RADAR)
05:58AM -21.1351 144.7204 334° Northwest 438 504 38,000  Level Aus ATC (RADAR)
05:58AM -21.0897 144.6966 334° Northwest 436 502 38,000  Level Aus ATC (RADAR)
05:59AM -21.0261 144.6626 333° Northwest 438 504 38,000  Level Aus ATC (RADAR)
06:00AM -20.9441 144.6197 334° Northwest 438 504 38,000  Level Aus ATC (RADAR)
06:00AM -20.8988 144.5956 334° Northwest 437 503 38,000  Level Aus ATC (RADAR)
06:01AM -20.8352 144.5623 334° Northwest 437 503 38,000  Level Aus ATC (RADAR)
06:01AM -20.7450 144.5150 334° Northwest 435 501 38,000  Level Aus ATC (RADAR)
06:02AM -20.6807 144.4810 334° Northwest 440 506 38,000  Level Aus ATC (RADAR)
06:03AM -20.5988 144.4381 334° Northwest 439 505 38,000  Level Aus ATC (RADAR)
06:03AM -20.5532 144.4145 334° Northwest 439 505 38,000  Level Aus ATC (RADAR)
06:04AM -20.4901 144.3811 334° Northwest 434 499 38,000  Level Aus ATC (RADAR)
06:05AM -20.3804 144.3239 334° Northwest 437 503 38,000  Level Aus ATC (RADAR)
06:05AM -20.3438 144.3047 334° Northwest 438 504 38,000  Level Aus ATC (RADAR)
06:06AM -20.2807 144.2720 334° Northwest 435 501 38,000  Level Aus ATC (RADAR)
06:06AM -20.1989 144.2295 334° Northwest 435 501 38,000  Level Aus ATC (RADAR)
06:07AM -20.1355 144.1961 334° Northwest 436 502 38,000  Level Aus ATC (RADAR)
06:08AM -20.0717 144.1633 334° Northwest 437 503 38,000  Level Aus ATC (RADAR)
06:08AM -20.0080 144.1297 334° Northwest 439 505 38,000  Level Aus ATC (RADAR)
06:09AM -19.9533 144.1017 334° Northwest 438 504 38,000  Level Aus ATC (RADAR)
06:09AM -19.8622 144.0542 334° Northwest 438 504 38,000  Level Aus ATC (RADAR)
06:10AM -19.7978 144.0207 334° Northwest 441 507 38,000 60 Level Aus ATC (RADAR)
06:11AM -19.7333 143.9879 334° Northwest 439 505 38,100  Climbing Aus ATC (RADAR)
06:11AM -19.6503 143.9444 334° Northwest 441 507 38,000 -120 Descending Aus ATC (RADAR)
06:12AM -19.6129 143.9254 334° Northwest 445 512 38,000  Level Aus ATC (RADAR)
06:12AM -19.5481 143.8922 334° Northwest 444 511 38,000  Level Aus ATC (RADAR)
06:13AM -19.4652 143.8493 334° Northwest 442 509 38,000  Level Aus ATC (RADAR)
06:14AM -19.4005 143.8161 334° Northwest 440 506 38,000  Level Aus ATC (RADAR)
06:14AM -19.3365 143.7829 334° Northwest 440 506 38,000  Level Aus ATC (RADAR)
06:15AM -19.2452 143.7364 334° Northwest 435 501 38,000  Level Aus ATC (RADAR)
06:15AM -19.1998 143.7127 334° Northwest 434 499 38,000  Level Aus ATC (RADAR)
06:16AM -19.1360 143.6797 334° Northwest 436 502 38,000  Level Aus ATC (RADAR)
06:17AM -19.0625 143.6422 334° Northwest 436 502 38,000  Level Aus ATC (RADAR)
06:17AM -18.9974 143.6091 334° Northwest 440 506 38,000  Level Aus ATC (RADAR)
06:18AM -18.9326 143.5759 334° Northwest 441 507 38,000  Level Aus ATC (RADAR)
06:18AM -18.8678 143.5429 334° Northwest 443 510 38,000  Level Aus ATC (RADAR)
06:19AM -18.8031 143.5099 334° Northwest 442 509 38,000  Level Aus ATC (RADAR)
06:20AM -18.7109 143.4627 334° Northwest 442 509 38,000  Level Aus ATC (RADAR)
06:20AM -18.6650 143.4395 334° Northwest 440 506 38,000  Level Aus ATC (RADAR)
06:21AM -18.6188 143.4160 334° Northwest 442 509 38,000  Level Aus ATC (RADAR)
06:21AM -18.5540 143.3834 335° Northwest 443 510 38,000  Level Aus ATC (RADAR)
06:22AM -18.4809 143.3463 334° Northwest 438 504 38,000  Level Aus ATC (RADAR)
06:23AM -18.4164 143.3131 334° Northwest 441 507 38,000  Level Aus ATC (RADAR)
06:23AM -18.3528 143.2807 334° Northwest 436 502 38,000  Level Aus ATC (RADAR)
06:24AM -18.2973 143.2527 334° Northwest 441 507 38,000  Level Aus ATC (RADAR)
06:24AM -18.2343 143.2185 333° Northwest 438 504 38,000  Level Aus ATC (RADAR)
06:25AM -18.1257 143.1588 332° Northwest 442 509 38,000  Level Aus ATC (RADAR)
06:26AM -18.0891 143.1389 333° Northwest 444 511 38,000  Level Aus ATC (RADAR)
06:26AM -18.0251 143.1039 333° Northwest 444 511 38,000 60 Level Aus ATC (RADAR)
06:27AM -17.9419 143.0589 333° Northwest 448 516 38,100  Climbing Aus ATC (RADAR)
06:27AM -17.8764 143.0235 333° Northwest 452 520 38,000 -120 Descending Aus ATC (RADAR)
06:28AM -17.8113 142.9884 333° Northwest 452 520 38,000  Level Aus ATC (RADAR)
06:29AM -17.7460 142.9528 333° Northwest 453 521 38,000  Level Aus ATC (RADAR)
06:29AM -17.6807 142.9178 333° Northwest 452 520 38,000  Level Aus ATC (RADAR)
06:30AM -17.5882 142.8677 333° Northwest 450 518 38,000  Level Aus ATC (RADAR)
06:30AM -17.5422 142.8435 333° Northwest 446 513 38,000 -120 Level Aus ATC (RADAR)
06:31AM -17.4966 142.8189 333° Northwest 444 511 37,900  Descending Aus ATC (RADAR)
06:31AM -17.4323 142.7843 333° Northwest 445 512 38,000 60 Climbing Aus ATC (RADAR)
06:32AM -17.3597 142.7449 333° Northwest 442 509 38,000  Level Aus ATC (RADAR)
06:33AM -17.2956 142.7105 333° Northwest 442 509 38,000  Level Aus ATC (RADAR)
06:33AM -17.2328 142.6762 332° Northwest 439 505 38,000  Level Aus ATC (RADAR)
06:34AM -17.1692 142.6416 333° Northwest 440 506 38,000  Level Aus ATC (RADAR)
06:34AM -17.1041 142.6066 333° Northwest 447 514 38,000  Level Aus ATC (RADAR)
06:35AM -17.0015 142.5512 333° Northwest 451 519 38,000  Level Aus ATC (RADAR)
06:36AM -16.9539 142.5260 333° Northwest 455 524 38,000  Level Aus ATC (RADAR)
06:36AM -16.8884 142.4911 333° Northwest 454 522 38,000  Level Aus ATC (RADAR)
06:37AM -16.8045 142.4467 333° Northwest 451 519 38,000  Level Aus ATC (RADAR)
06:38AM -16.7405 142.4119 333° Northwest 448 516 38,000  Level Aus ATC (RADAR)
06:38AM -16.6761 142.3778 333° Northwest 446 513 38,000  Level Aus ATC (RADAR)
06:39AM -16.6217 142.3488 333° Northwest 442 509 38,000  Level Aus ATC (RADAR)
06:39AM -16.5578 142.3146 333° Northwest 442 509 38,000  Level Aus ATC (RADAR)
06:40AM -16.4657 142.2652 333° Northwest 446 513 38,000  Level Aus ATC (RADAR)
06:41AM -16.4095 142.2359 333° Northwest 448 516 38,000  Level Aus ATC (RADAR)
06:41AM -16.3452 142.2013 333° Northwest 447 514 38,000  Level Aus ATC (RADAR)
06:42AM -16.2797 142.1665 333° Northwest 449 517 38,000  Level Aus ATC (RADAR)
06:42AM -16.2151 142.1317 333° Northwest 449 517 38,000  Level Aus ATC (RADAR)
06:43AM -16.1584 142.1019 333° Northwest 451 519 38,000  Level Aus ATC (RADAR)
06:43AM -16.0930 142.0667 333° Northwest 454 522 38,000  Level Aus ATC (RADAR)
06:44AM -16.0374 142.0365 332° Northwest 452 520 38,000  Level Aus ATC (RADAR)
06:45AM -15.9627 141.9967 333° Northwest 451 519 38,000  Level Aus ATC (RADAR)
06:46AM -15.8225 141.9212 333° Northwest 451 519 38,000 -60 Level Aus ATC (RADAR)
06:46AM -15.7748 141.8971 334° Northwest 450 518 37,900 -240 Descending Aus ATC (RADAR)
06:47AM -15.7095 141.8631 333° Northwest 449 517 37,800  Descending Aus ATC (RADAR)
06:48AM -15.6245 141.8208 334° Northwest 448 516 37,900 60 Climbing Aus ATC (RADAR)
06:48AM -15.5591 141.7875 334° Northwest 447 514 37,900  Level Aus ATC (RADAR)
06:49AM -15.4761 141.7443 333° Northwest 445 512 37,900  Level Aus ATC (RADAR)
06:49AM -15.4292 141.7202 334° Northwest 447 514 37,900  Level Aus ATC (RADAR)
06:50AM -15.3739 141.6881 331° Northwest 456 525 37,900  Level Aus ATC (RADAR)
06:51AM -15.2935 141.6398 330° Northwest 450 518 37,900  Level Aus ATC (RADAR)
06:51AM -15.2480 141.6138 331° Northwest 447 514 37,900  Level Aus ATC (RADAR)
06:52AM -15.1844 141.5758 330° Northwest 451 519 37,900  Level Aus ATC (RADAR)
06:52AM -15.1030 141.5275 330° Northwest 450 518 37,900  Level Aus ATC (RADAR)
06:53AM -15.0457 141.4960 332° Northwest 455 524 37,900  Level Aus ATC (RADAR)
06:53AM -14.9807 141.4590 331° Northwest 455 524 37,900  Level Aus ATC (RADAR)
06:54AM -14.9440 141.4383 331° Northwest 453 521 37,900  Level Aus ATC (RADAR)
06:59AM -14.4456 141.1550 360° North 38,000  Climbing Aus ATC (Calculated)
06:59AM -14.4456 141.1550 331° Northwest 38,000  Level Aus ATC (Calculated)
07:01AM -14.2660 141.0533 331° Northwest  Level FlightAware Approximate
07:02AM -14.1592 140.9929 331° Northwest  Level FlightAware Approximate
07:03AM -14.0525 140.9326 331° Northwest  Level FlightAware Approximate
07:03AM -13.9546 140.8774 331° Northwest 38,000  Level Aus ATC (Calculated)
07:04AM -13.9457 140.8724 331° Northwest  Level FlightAware Approximate
07:04AM -13.8615 140.8249 331° Northwest 38,000  Level Aus ATC (Calculated)
07:05AM -13.8176 140.8002 331° Northwest  Level FlightAware Approximate
07:06AM -13.7245 140.7478 331° Northwest  Level FlightAware Approximate
07:07AM -13.6177 140.6877 331° Northwest  Level FlightAware Approximate
07:08AM -13.5108 140.6277 331° Northwest  Level FlightAware Approximate
07:09AM -13.4040 140.5677 331° Northwest  Level FlightAware Approximate
07:09AM -13.3159 140.5183 331° Northwest 38,000  Level Aus ATC (Calculated)
07:11AM -13.1342 140.4166 331° Northwest  Level FlightAware Approximate
07:12AM -13.0273 140.3568 331° Northwest  Level FlightAware Approximate
07:13AM -12.9204 140.2971 331° Northwest  Level FlightAware Approximate
07:14AM -12.8135 140.2374 331° Northwest  Level FlightAware Approximate
07:14AM -12.7244 140.1877 331° Northwest 38,000  Level Aus ATC (Calculated)
07:16AM -12.5408 140.0854 331° Northwest  Level FlightAware Approximate
07:17AM -12.4338 140.0259 331° Northwest  Level FlightAware Approximate
07:18AM -12.3268 139.9665 332° Northwest  Level FlightAware Approximate
07:19AM -12.2198 139.9071 332° Northwest  Level FlightAware Approximate
07:19AM -12.1694 139.8791 332° Northwest 38,000  Level Aus ATC (Calculated)
07:20AM -12.1129 139.8477 332° Northwest  Level FlightAware Approximate
07:21AM -11.9857 139.7773 332° Northwest  Level FlightAware Approximate
07:21AM -11.8640 139.7099 152° Southeast 38,000  Level Aus ATC (Calculated)
07:22AM -11.8786 139.7180 332° Northwest  Level FlightAware Approximate
07:23AM -11.7284 139.6349 332° Northwest  Level FlightAware Approximate
07:24AM -11.6213 139.5758 332° Northwest  Level FlightAware Approximate
07:24AM -11.5776 139.5516 332° Northwest 38,000  Level Aus ATC (Calculated)
07:26AM -11.3938 139.4502 332° Northwest  Level FlightAware Approximate
07:27AM -11.2867 139.3912 332° Northwest  Level FlightAware Approximate
07:28AM -11.1796 139.3323 332° Northwest  Level FlightAware Approximate
07:29AM -11.0724 139.2734 332° Northwest  Level FlightAware Approximate
07:29AM -11.0260 139.2478 332° Northwest 38,000  Level Aus ATC (Calculated)
07:30AM -10.9583 139.2107 332° Northwest 38,000  Level Aus ATC (Calculated)
07:32AM -10.7549 139.0987 332° Northwest  Level FlightAware Approximate
07:32AM -10.7616 139.1028 152° Southeast 38,000  Level Aus ATC (Calculated)
07:33AM -10.8688 139.1615 152° Southeast  Level FlightAware Approximate
07:33AM -10.5833 139.0051 152° Southeast 38,000  Level Aus ATC (Calculated)
07:34AM -10.9759 139.2203 152° Southeast  Level FlightAware Approximate
07:35AM -10.4217 138.9167 152° Southeast 38,000  Level Aus ATC (Calculated)
07:35AM -10.7102 139.0746 152° Southeast  Level FlightAware Approximate
07:36AM -10.5289 138.9754 152° Southeast  Level FlightAware Approximate
07:37AM -10.4310 138.9018 332° Northwest  Level Estimated
07:38AM -10.3233 138.8443 332° Northwest  Level FlightAware Approximate
07:38AM -10.0799 138.7301 332° Northwest 38,000  Level Aus ATC (Calculated)
07:40AM -9.8905 138.6269 332° Northwest  Level FlightAware Approximate
07:40AM -9.8510 138.6054 332° Northwest 38,000  Level Aus ATC (Calculated)
07:41AM -9.7437 138.5470 332° Northwest  Level FlightAware Approximate
07:42AM -9.6365 138.4886 332° Northwest  Level FlightAware Approximate
07:43AM -9.5292 138.4303 332° Northwest  Level FlightAware Approximate
07:44AM -9.4219 138.3721 332° Northwest  Level FlightAware Approximate
07:44AM -9.4168 138.3693 332° Northwest 38,000  Level Aus ATC (Calculated)
07:45AM -9.3095 138.3111 332° Northwest  Level FlightAware Approximate
07:46AM -9.2022 138.2529 332° Northwest  Level FlightAware Approximate
07:47AM -9.0949 138.1947 332° Northwest  Level FlightAware Approximate
07:48AM -8.9875 138.1366 332° Northwest  Level FlightAware Approximate
07:49AM -8.8802 138.0785 332° Northwest  Level FlightAware Approximate
07:50AM -8.7729 138.0204 332° Northwest  Level FlightAware Approximate
07:51AM -8.8802 138.0785 152° Southeast  Level FlightAware Approximate
07:52AM -8.7729 138.0204 332° Northwest  Level FlightAware Approximate
07:53AM -8.8802 138.0785 152° Southeast  Level FlightAware Approximate
07:54AM -8.7729 138.0204 332° Northwest  Level FlightAware Approximate
07:55AM -8.8802 138.0785 152° Southeast  Level FlightAware Approximate
07:56AM -8.7729 138.0204 332° Northwest  Level FlightAware Approximate
07:57AM -8.8245 138.0405 323° Northwest  Level FlightAware Approximate
07:58AM -8.7278 137.9656 323° Northwest  Level FlightAware Approximate
07:59AM -8.6312 137.8908 323° Northwest  Level FlightAware Approximate
08:00AM -8.5345 137.8161 323° Northwest  Level FlightAware Approximate
08:01AM -8.4378 137.7413 323° Northwest  Level FlightAware Approximate
08:02AM -8.3410 137.6666 323° Northwest  Level FlightAware Approximate
08:03AM -8.2443 137.5920 323° Northwest  Level FlightAware Approximate
08:04AM -8.1476 137.5174 323° Northwest  Level FlightAware Approximate
08:05AM -8.0508 137.4428 323° Northwest  Level FlightAware Approximate
08:06AM -7.9540 137.3682 323° Northwest  Level FlightAware Approximate
08:07AM -7.8572 137.2937 323° Northwest  Level FlightAware Approximate
08:08AM -7.7604 137.2193 323° Northwest  Level FlightAware Approximate
08:09AM -7.6636 137.1448 323° Northwest  Level FlightAware Approximate
08:10AM -7.5668 137.0704 323° Northwest  Level FlightAware Approximate
08:11AM -7.4699 136.9960 323° Northwest  Level FlightAware Approximate
08:12AM -7.3731 136.9217 323° Northwest  Level FlightAware Approximate
08:13AM -7.2762 136.8474 323° Northwest  Level FlightAware Approximate
08:14AM -7.1793 136.7731 323° Northwest  Level FlightAware Approximate
08:15AM -7.0824 136.6989 323° Northwest  Level FlightAware Approximate
08:16AM -6.9855 136.6247 323° Northwest  Level FlightAware Approximate
08:17AM -6.8886 136.5505 323° Northwest  Level FlightAware Approximate
08:18AM -6.7917 136.4763 323° Northwest  Level FlightAware Approximate
08:19AM -6.6948 136.4022 323° Northwest  Level FlightAware Approximate
08:20AM -6.5978 136.3281 323° Northwest  Level FlightAware Approximate
08:21AM -6.5009 136.2541 323° Northwest  Level FlightAware Approximate
08:22AM -6.4039 136.1800 323° Northwest  Level FlightAware Approximate
08:23AM -6.3069 136.1060 323° Northwest  Level FlightAware Approximate
08:24AM -6.2099 136.0320 323° Northwest  Level FlightAware Approximate
08:25AM -6.1129 135.9581 323° Northwest  Level FlightAware Approximate
08:26AM -6.0159 135.8842 323° Northwest  Level FlightAware Approximate
08:27AM -5.9189 135.8103 323° Northwest  Level FlightAware Approximate
08:28AM -5.8219 135.7364 323° Northwest  Level FlightAware Approximate
08:29AM -5.7248 135.6625 323° Northwest  Level FlightAware Approximate
08:30AM -5.6278 135.5887 323° Northwest  Level FlightAware Approximate
08:31AM -5.5307 135.5149 323° Northwest  Level FlightAware Approximate
08:32AM -5.4337 135.4411 323° Northwest  Level FlightAware Approximate
08:33AM -5.3366 135.3674 323° Northwest  Level FlightAware Approximate
08:34AM -5.2395 135.2937 323° Northwest  Level FlightAware Approximate
08:35AM -5.1424 135.2200 323° Northwest  Level FlightAware Approximate
08:36AM -5.0453 135.1463 323° Northwest  Level FlightAware Approximate
08:37AM -4.9482 135.0726 323° Northwest  Level FlightAware Approximate
08:38AM -4.8511 134.9990 323° Northwest  Level FlightAware Approximate
08:39AM -4.7539 134.9254 323° Northwest  Level FlightAware Approximate
08:40AM -4.6568 134.8518 323° Northwest  Level FlightAware Approximate
08:41AM -4.5597 134.7782 323° Northwest  Level FlightAware Approximate
08:42AM -4.4625 134.7046 323° Northwest  Level FlightAware Approximate
08:43AM -4.3654 134.6311 323° Northwest  Level FlightAware Approximate
08:44AM -4.2682 134.5576 323° Northwest  Level FlightAware Approximate
08:45AM -4.1710 134.4841 323° Northwest  Level FlightAware Approximate
08:46AM -4.0739 134.4106 323° Northwest  Level FlightAware Approximate
08:47AM -3.9767 134.3371 323° Northwest  Level FlightAware Approximate
08:48AM -3.8795 134.2637 323° Northwest  Level FlightAware Approximate
08:49AM -3.7823 134.1902 323° Northwest  Level FlightAware Approximate
08:50AM -3.6851 134.1168 323° Northwest  Level FlightAware Approximate
08:51AM -3.5879 134.0435 323° Northwest  Level FlightAware Approximate
08:52AM -3.4907 133.9701 323° Northwest  Level FlightAware Approximate
08:53AM -3.3934 133.8967 323° Northwest  Level FlightAware Approximate
08:54AM -3.2962 133.8234 323° Northwest  Level FlightAware Approximate
08:55AM -3.1990 133.7500 323° Northwest  Level FlightAware Approximate
08:56AM -3.1017 133.6767 323° Northwest  Level FlightAware Approximate
08:57AM -3.0045 133.6034 323° Northwest  Level FlightAware Approximate
08:58AM -2.9095 133.5273 321° Northwest  Level FlightAware Approximate
08:59AM -2.8145 133.4510 321° Northwest  Level FlightAware Approximate
09:00AM -2.7196 133.3748 321° Northwest  Level FlightAware Approximate
09:01AM -2.6246 133.2986 321° Northwest  Level FlightAware Approximate
09:02AM -2.5297 133.2223 321° Northwest  Level FlightAware Approximate
09:03AM -2.4347 133.1461 321° Northwest  Level FlightAware Approximate
09:04AM -2.3397 133.0699 321° Northwest  Level FlightAware Approximate
09:05AM -2.2448 132.9938 321° Northwest  Level FlightAware Approximate
09:06AM -2.1498 132.9176 321° Northwest  Level FlightAware Approximate
09:07AM -2.0548 132.8414 321° Northwest  Level FlightAware Approximate
09:08AM -1.9598 132.7653 321° Northwest  Level FlightAware Approximate
09:09AM -1.8648 132.6891 321° Northwest  Level FlightAware Approximate
09:10AM -1.7698 132.6130 321° Northwest  Level FlightAware Approximate
09:11AM -1.6748 132.5368 321° Northwest  Level FlightAware Approximate
09:12AM -1.5798 132.4607 321° Northwest  Level FlightAware Approximate
09:13AM -1.4849 132.3846 321° Northwest  Level FlightAware Approximate
09:14AM -1.3899 132.3085 321° Northwest  Level FlightAware Approximate
09:15AM -1.2948 132.2324 321° Northwest  Level FlightAware Approximate
09:16AM -1.1998 132.1563 321° Northwest  Level FlightAware Approximate
09:17AM -1.1048 132.0802 321° Northwest  Level FlightAware Approximate
09:18AM -1.0098 132.0041 321° Northwest  Level FlightAware Approximate
09:19AM -0.9148 131.9280 321° Northwest  Level FlightAware Approximate
09:20AM -0.8198 131.8519 321° Northwest  Level FlightAware Approximate
09:21AM -0.7248 131.7759 321° Northwest  Level FlightAware Approximate
09:22AM -0.6297 131.6998 321° Northwest  Level FlightAware Approximate
09:23AM -0.5347 131.6237 321° Northwest  Level FlightAware Approximate
09:24AM -0.4397 131.5477 321° Northwest  Level FlightAware Approximate
09:25AM -0.3447 131.4716 321° Northwest  Level FlightAware Approximate
09:26AM -0.2497 131.3955 321° Northwest  Level FlightAware Approximate
09:27AM -0.1546 131.3195 321° Northwest  Level FlightAware Approximate
09:28AM -0.0596 131.2434 321° Northwest  Level FlightAware Approximate
09:29AM 0.0354 131.1673 321° Northwest  Level FlightAware Approximate
09:30AM 0.1304 131.0913 321° Northwest  Level FlightAware Approximate
09:31AM 0.2254 131.0152 321° Northwest  Level FlightAware Approximate
09:32AM 0.3205 130.9392 321° Northwest  Level FlightAware Approximate
09:33AM 0.4155 130.8631 321° Northwest  Level FlightAware Approximate
09:34AM 0.5105 130.7870 321° Northwest  Level FlightAware Approximate
09:35AM 0.6055 130.7110 321° Northwest  Level FlightAware Approximate
09:36AM 0.7005 130.6349 321° Northwest  Level FlightAware Approximate
09:37AM 0.7956 130.5588 321° Northwest  Level FlightAware Approximate
09:38AM 0.8906 130.4827 321° Northwest  Level FlightAware Approximate
09:39AM 0.9856 130.4066 321° Northwest  Level FlightAware Approximate
09:40AM 1.0806 130.3306 321° Northwest  Level FlightAware Approximate
09:41AM 1.1756 130.2545 321° Northwest  Level FlightAware Approximate
09:42AM 1.2706 130.1784 321° Northwest  Level FlightAware Approximate
09:43AM 1.3656 130.1023 321° Northwest  Level FlightAware Approximate
09:44AM 1.4606 130.0262 321° Northwest  Level FlightAware Approximate
09:45AM 1.5556 129.9500 321° Northwest  Level FlightAware Approximate
09:46AM 1.6506 129.8739 321° Northwest  Level FlightAware Approximate
09:47AM 1.7456 129.7978 321° Northwest  Level FlightAware Approximate
09:48AM 1.8406 129.7216 321° Northwest  Level FlightAware Approximate
09:49AM 1.9356 129.6455 321° Northwest  Level FlightAware Approximate
09:50AM 2.0322 129.5714 323° Northwest  Level FlightAware Approximate
09:51AM 2.1294 129.4981 323° Northwest  Level FlightAware Approximate
09:52AM 2.2266 129.4247 323° Northwest  Level FlightAware Approximate
09:53AM 2.3238 129.3514 323° Northwest  Level FlightAware Approximate
09:54AM 2.4209 129.2780 323° Northwest  Level FlightAware Approximate
09:55AM 2.5181 129.2046 323° Northwest  Level FlightAware Approximate
09:56AM 2.6152 129.1312 323° Northwest  Level FlightAware Approximate
09:57AM 2.7124 129.0578 323° Northwest  Level FlightAware Approximate
09:58AM 2.8095 128.9844 323° Northwest  Level FlightAware Approximate
09:59AM 2.9067 128.9110 323° Northwest  Level FlightAware Approximate
10:00AM 3.0038 128.8376 323° Northwest  Level FlightAware Approximate
10:01AM 3.1009 128.7641 323° Northwest  Level FlightAware Approximate
10:02AM 3.1981 128.6906 323° Northwest  Level FlightAware Approximate
10:03AM 3.2952 128.6172 323° Northwest  Level FlightAware Approximate
10:04AM 3.3923 128.5437 323° Northwest  Level FlightAware Approximate
10:05AM 3.4894 128.4702 323° Northwest  Level FlightAware Approximate
10:06AM 3.5865 128.3966 323° Northwest  Level FlightAware Approximate
10:07AM 3.6836 128.3231 323° Northwest  Level FlightAware Approximate
10:08AM 3.7807 128.2495 323° Northwest  Level FlightAware Approximate
10:09AM 3.8778 128.1760 323° Northwest  Level FlightAware Approximate
10:10AM 3.9749 128.1024 323° Northwest  Level FlightAware Approximate
10:11AM 4.0715 128.0282 322° Northwest  Level FlightAware Approximate
10:12AM 4.1680 127.9538 322° Northwest  Level FlightAware Approximate
10:13AM 4.2645 127.8793 322° Northwest  Level FlightAware Approximate
10:14AM 4.3609 127.8049 322° Northwest  Level FlightAware Approximate
10:15AM 4.4574 127.7304 322° Northwest  Level FlightAware Approximate
10:16AM 4.5538 127.6560 322° Northwest  Level FlightAware Approximate
10:17AM 4.6502 127.5815 322° Northwest  Level FlightAware Approximate
10:18AM 4.7467 127.5069 322° Northwest  Level FlightAware Approximate
10:19AM 4.8431 127.4324 322° Northwest  Level FlightAware Approximate
10:20AM 4.9395 127.3578 322° Northwest  Level FlightAware Approximate
10:21AM 5.0359 127.2832 322° Northwest  Level FlightAware Approximate
10:22AM 5.1323 127.2086 322° Northwest  Level FlightAware Approximate
10:23AM 5.2287 127.1340 322° Northwest  Level FlightAware Approximate
10:24AM 5.3250 127.0593 322° Northwest  Level FlightAware Approximate
10:25AM 5.4214 126.9846 322° Northwest  Level FlightAware Approximate
10:26AM 5.5178 126.9100 322° Northwest  Level FlightAware Approximate
10:27AM 5.6141 126.8352 322° Northwest  Level FlightAware Approximate
10:28AM 5.7105 126.7605 322° Northwest  Level FlightAware Approximate
10:29AM 5.8068 126.6857 322° Northwest  Level FlightAware Approximate
10:30AM 5.9031 126.6109 322° Northwest  Level FlightAware Approximate
10:31AM 5.9994 126.5361 322° Northwest  Level FlightAware Approximate
10:32AM 6.0957 126.4612 322° Northwest  Level FlightAware Approximate
10:33AM 6.1920 126.3863 322° Northwest  Level FlightAware Approximate
10:34AM 6.2883 126.3114 322° Northwest  Level FlightAware Approximate
10:35AM 6.3846 126.2365 322° Northwest  Level FlightAware Approximate
10:36AM 6.4808 126.1615 322° Northwest  Level FlightAware Approximate
10:37AM 6.5771 126.0865 322° Northwest  Level FlightAware Approximate
10:38AM 6.6733 126.0115 322° Northwest  Level FlightAware Approximate
10:39AM 6.7695 125.9364 322° Northwest  Level FlightAware Approximate
10:40AM 6.8657 125.8614 322° Northwest  Level FlightAware Approximate
10:41AM 6.9619 125.7863 322° Northwest  Level FlightAware Approximate
10:42AM 7.0581 125.7111 322° Northwest  Level FlightAware Approximate
10:43AM 7.1540 125.6355 321° Northwest  Level FlightAware Approximate
10:44AM 7.2488 125.5587 321° Northwest  Level FlightAware Approximate
10:45AM 7.3437 125.4817 321° Northwest  Level FlightAware Approximate
10:46AM 7.4385 125.4048 321° Northwest  Level FlightAware Approximate
10:47AM 7.5333 125.3278 321° Northwest  Level FlightAware Approximate
10:48AM 7.6281 125.2507 321° Northwest  Level FlightAware Approximate
10:49AM 7.7229 125.1737 321° Northwest  Level FlightAware Approximate
10:50AM 7.8176 125.0966 321° Northwest  Level FlightAware Approximate
10:51AM 7.9124 125.0195 321° Northwest  Level FlightAware Approximate
10:52AM 8.0071 124.9423 321° Northwest  Level FlightAware Approximate
10:53AM 8.1019 124.8652 321° Northwest  Level FlightAware Approximate
10:54AM 8.1966 124.7880 321° Northwest  Level FlightAware Approximate
10:55AM 8.2913 124.7107 321° Northwest  Level FlightAware Approximate
10:56AM 8.3860 124.6334 321° Northwest  Level FlightAware Approximate
10:57AM 8.4842 124.5609 325° Northwest  Level FlightAware Approximate
10:58AM 8.5841 124.4904 325° Northwest  Level FlightAware Approximate
10:59AM 8.6839 124.4200 325° Northwest  Level FlightAware Approximate
11:00AM 8.7837 124.3495 325° Northwest  Level FlightAware Approximate
11:01AM 8.8835 124.2790 325° Northwest  Level FlightAware Approximate
11:02AM 8.9833 124.2085 325° Northwest  Level FlightAware Approximate
11:03AM 9.0831 124.1379 325° Northwest  Level FlightAware Approximate
11:04AM 9.1828 124.0673 325° Northwest  Level FlightAware Approximate
11:05AM 9.2826 123.9966 325° Northwest  Level FlightAware Approximate
11:06AM 9.3823 123.9259 325° Northwest  Level FlightAware Approximate
11:07AM 9.4820 123.8551 325° Northwest  Level FlightAware Approximate
11:08AM 9.5818 123.7843 325° Northwest  Level FlightAware Approximate
11:09AM 9.6814 123.7135 325° Northwest  Level FlightAware Approximate
11:10AM 9.7811 123.6426 325° Northwest  Level FlightAware Approximate
11:11AM 9.8808 123.5717 325° Northwest  Level FlightAware Approximate
11:12AM 9.9804 123.5008 325° Northwest  Level FlightAware Approximate
11:13AM 10.0801 123.4298 325° Northwest  Level FlightAware Approximate
11:14AM 10.1797 123.3587 325° Northwest  Level FlightAware Approximate
11:15AM 10.2793 123.2877 325° Northwest  Level FlightAware Approximate
11:16AM 10.3789 123.2165 325° Northwest  Level FlightAware Approximate
11:17AM 10.4784 123.1453 325° Northwest  Level FlightAware Approximate
11:18AM 10.5780 123.0741 325° Northwest  Level FlightAware Approximate
11:19AM 10.6776 123.0029 325° Northwest  Level FlightAware Approximate
11:20AM 10.7771 122.9315 325° Northwest  Level FlightAware Approximate
11:21AM 10.8766 122.8602 325° Northwest  Level FlightAware Approximate
11:22AM 10.9761 122.7888 325° Northwest  Level FlightAware Approximate
11:23AM 11.0755 122.7173 325° Northwest  Level FlightAware Approximate
11:24AM 11.1750 122.6458 325° Northwest  Level FlightAware Approximate
11:25AM 11.2744 122.5742 325° Northwest  Level FlightAware Approximate
11:26AM 11.3739 122.5026 325° Northwest  Level FlightAware Approximate
11:27AM 11.4733 122.4310 325° Northwest  Level FlightAware Approximate
11:28AM 11.5727 122.3593 325° Northwest  Level FlightAware Approximate
11:29AM 11.6720 122.2875 325° Northwest  Level FlightAware Approximate
11:30AM 11.7714 122.2157 325° Northwest  Level FlightAware Approximate
11:31AM 11.8707 122.1438 325° Northwest  Level FlightAware Approximate
11:32AM 11.9700 122.0719 325° Northwest  Level FlightAware Approximate
11:33AM 12.0693 121.9999 325° Northwest  Level FlightAware Approximate
11:34AM 12.1686 121.9279 325° Northwest  Level FlightAware Approximate
11:35AM 12.2679 121.8559 325° Northwest  Level FlightAware Approximate
11:36AM 12.3671 121.7837 325° Northwest  Level FlightAware Approximate
11:37AM 12.4663 121.7115 325° Northwest  Level FlightAware Approximate
11:38AM 12.5655 121.6393 325° Northwest  Level FlightAware Approximate
11:39AM 12.6647 121.5670 325° Northwest  Level FlightAware Approximate
11:40AM 12.7639 121.4947 325° Northwest  Level FlightAware Approximate
11:41AM 12.8630 121.4222 325° Northwest  Level FlightAware Approximate
11:42AM 12.9621 121.3498 325° Northwest  Level FlightAware Approximate
11:43AM 13.0612 121.2773 325° Northwest  Level FlightAware Approximate
11:44AM 13.1603 121.2047 325° Northwest  Level FlightAware Approximate
11:45AM 13.2594 121.1320 324° Northwest  Level FlightAware Approximate
11:46AM 13.3584 121.0593 324° Northwest  Level FlightAware Approximate
11:47AM 13.4574 120.9866 324° Northwest  Level FlightAware Approximate
11:48AM 13.5564 120.9138 324° Northwest  Level FlightAware Approximate
11:49AM 13.6554 120.8409 324° Northwest  Level FlightAware Approximate
11:50AM 13.7544 120.7679 324° Northwest  Level FlightAware Approximate
11:51AM 13.8533 120.6949 324° Northwest  Level FlightAware Approximate
11:52AM 13.9522 120.6219 324° Northwest  Level FlightAware Approximate
11:53AM 14.0511 120.5488 324° Northwest  Level FlightAware Approximate
11:54AM 14.1500 120.4756 324° Northwest  Level FlightAware Approximate
11:55AM 14.2489 120.4023 324° Northwest  Level FlightAware Approximate
11:56AM 14.3477 120.3290 324° Northwest  Level FlightAware Approximate
11:57AM 14.4465 120.2556 324° Northwest  Level FlightAware Approximate
11:58AM 14.5453 120.1822 324° Northwest  Level FlightAware Approximate
11:59AM 14.6440 120.1087 324° Northwest  Level FlightAware Approximate
12:00PM 14.7428 120.0351 324° Northwest  Level FlightAware Approximate
12:01PM 14.8415 119.9614 324° Northwest  Level FlightAware Approximate
12:02PM 14.9402 119.8877 324° Northwest  Level FlightAware Approximate
12:03PM 15.0388 119.8139 324° Northwest  Level FlightAware Approximate
12:04PM 15.1375 119.7401 324° Northwest  Level FlightAware Approximate
12:05PM 15.2361 119.6662 324° Northwest  Level FlightAware Approximate
12:06PM 15.3347 119.5922 324° Northwest  Level FlightAware Approximate
12:07PM 15.4333 119.5181 324° Northwest  Level FlightAware Approximate
12:08PM 15.5318 119.4440 324° Northwest  Level FlightAware Approximate
12:09PM 15.6303 119.3698 324° Northwest  Level FlightAware Approximate
12:10PM 15.7288 119.2955 324° Northwest  Level FlightAware Approximate
12:11PM 15.8273 119.2212 324° Northwest  Level FlightAware Approximate
12:12PM 15.9258 119.1468 324° Northwest  Level FlightAware Approximate
12:13PM 16.0242 119.0723 324° Northwest  Level FlightAware Approximate
12:14PM 16.1226 118.9977 324° Northwest  Level FlightAware Approximate
12:15PM 16.2209 118.9231 324° Northwest  Level FlightAware Approximate
12:16PM 16.3193 118.8484 324° Northwest  Level FlightAware Approximate
12:17PM 16.4176 118.7736 324° Northwest  Level FlightAware Approximate
12:18PM 16.5159 118.6987 324° Northwest  Level FlightAware Approximate
12:19PM 16.6141 118.6238 324° Northwest  Level FlightAware Approximate
12:20PM 16.7124 118.5488 324° Northwest  Level FlightAware Approximate
12:21PM 16.8106 118.4737 324° Northwest  Level FlightAware Approximate
12:22PM 16.9088 118.3985 324° Northwest  Level FlightAware Approximate
12:23PM 17.0069 118.3232 324° Northwest  Level FlightAware Approximate
12:24PM 17.1051 118.2479 324° Northwest  Level FlightAware Approximate
12:25PM 17.2032 118.1725 324° Northwest  Level FlightAware Approximate
12:26PM 17.3012 118.0970 324° Northwest  Level FlightAware Approximate
12:27PM 17.3993 118.0214 324° Northwest  Level FlightAware Approximate
12:28PM 17.4973 117.9458 324° Northwest  Level FlightAware Approximate
12:29PM 17.5953 117.8701 324° Northwest  Level FlightAware Approximate
12:30PM 17.6932 117.7943 324° Northwest  Level FlightAware Approximate
12:31PM 17.7912 117.7184 324° Northwest  Level FlightAware Approximate
12:32PM 17.8891 117.6424 324° Northwest  Level FlightAware Approximate
12:33PM 17.9869 117.5663 324° Northwest  Level FlightAware Approximate
12:34PM 18.0848 117.4902 324° Northwest  Level FlightAware Approximate
12:35PM 18.1826 117.4139 323° Northwest  Level FlightAware Approximate
12:36PM 18.2804 117.3376 323° Northwest  Level FlightAware Approximate
12:37PM 18.3781 117.2612 323° Northwest  Level FlightAware Approximate
12:38PM 18.4758 117.1847 323° Northwest  Level FlightAware Approximate
12:39PM 18.5735 117.1081 323° Northwest  Level FlightAware Approximate
12:40PM 18.6712 117.0315 323° Northwest  Level FlightAware Approximate
12:41PM 18.7688 116.9547 323° Northwest  Level FlightAware Approximate
12:42PM 18.8664 116.8779 323° Northwest  Level FlightAware Approximate
12:43PM 18.9639 116.8010 323° Northwest  Level FlightAware Approximate
12:44PM 19.0615 116.7240 323° Northwest  Level FlightAware Approximate
12:45PM 19.1590 116.6468 323° Northwest  Level FlightAware Approximate
12:46PM 19.2565 116.5696 323° Northwest  Level FlightAware Approximate
12:47PM 19.3539 116.4923 323° Northwest  Level FlightAware Approximate
12:48PM 19.4513 116.4150 323° Northwest  Level FlightAware Approximate
12:49PM 19.5487 116.3375 323° Northwest  Level FlightAware Approximate
12:50PM 19.6460 116.2599 323° Northwest  Level FlightAware Approximate
12:51PM 19.7433 116.1822 323° Northwest  Level FlightAware Approximate
12:52PM 19.8405 116.1045 323° Northwest  Level FlightAware Approximate
12:53PM 19.9378 116.0266 323° Northwest  Level FlightAware Approximate
12:54PM 20.0350 115.9487 323° Northwest  Level FlightAware Approximate
12:55PM 20.1322 115.8706 323° Northwest  Level FlightAware Approximate
12:56PM 20.2293 115.7925 323° Northwest  Level FlightAware Approximate
12:57PM 20.3264 115.7142 323° Northwest  Level FlightAware Approximate
12:58PM 20.4234 115.6359 323° Northwest  Level FlightAware Approximate
12:59PM 20.5205 115.5574 323° Northwest  Level FlightAware Approximate
01:00PM 20.6175 115.4789 323° Northwest  Level FlightAware Approximate
01:01PM 20.7144 115.4003 323° Northwest  Level FlightAware Approximate
01:02PM 20.8113 115.3215 323° Northwest  Level FlightAware Approximate
01:03PM 20.9082 115.2427 323° Northwest  Level FlightAware Approximate
01:04PM 21.0051 115.1637 323° Northwest  Level FlightAware Approximate
01:05PM 21.1019 115.0847 323° Northwest  Level FlightAware Approximate
01:06PM 21.1987 115.0055 323° Northwest  Level FlightAware Approximate
01:07PM 21.2954 114.9263 323° Northwest  Level FlightAware Approximate
01:08PM 21.3921 114.8469 323° Northwest  Level FlightAware Approximate
01:09PM 21.4888 114.7675 323° Northwest  Level FlightAware Approximate
01:10PM 21.5854 114.6879 323° Northwest  Level FlightAware Approximate
01:11PM 21.6820 114.6082 323° Northwest  Level FlightAware Approximate
01:12PM 21.7785 114.5284 323° Northwest  Level FlightAware Approximate
01:13PM 21.8750 114.4485 322° Northwest  Level FlightAware Approximate
01:14PM 21.9715 114.3685 322° Northwest  Level FlightAware Approximate
01:15PM 22.0679 114.2884 322° Northwest  Level FlightAware Approximate
01:16PM 22.1643 114.2082 322° Northwest  Level FlightAware Approximate
01:17PM 22.2607 114.1279 322° Northwest  Level FlightAware Approximate
01:18PM 22.3570 114.0474 322° Northwest  Level FlightAware Approximate
01:19PM 22.4533 113.9669 322° Northwest  Level FlightAware Approximate
01:20PM 22.5495 113.8862 322° Northwest  Level FlightAware Approximate
01:21PM 22.6383 113.8117 325° Northwest  Level FlightAware Approximate
01:22PM 22.6395 113.8124 325° Northwest  Level Estimated
01:23PM 22.6383 113.8117 325° Northwest  Level FlightAware Approximate
01:24PM 22.6395 113.8124 325° Northwest  Level Estimated
01:25PM 22.6383 113.8117 325° Northwest  Level FlightAware Approximate
01:26PM 22.6395 113.8124 325° Northwest  Level Estimated
01:27PM 22.6383 113.8117 325° Northwest  Level FlightAware Approximate